Time;durP1;ratioP1;P1;durP2;ratioP2;P2;SDS_P1;SDS_P2;PMS_P1;PMS_P2;Temp;Humidity;BMP_temperature;BMP_pressure;BME280_temperature;BME280_humidity;BME280_pressure;Samples;Min_cycle;Max_cycle;Signal;HPM_P1;HPM_P2
2022/10/30 00:00:23;;;;;;;0.10;0.10;;;15.00;99.90;;;;;;5064677;28;20647;-79
2022/10/30 00:02:49;;;;;;;0.10;0.10;;;14.90;99.90;;;;;;5065135;28;20282;-79
2022/10/30 00:05:15;;;;;;;0.10;0.10;;;14.90;99.90;;;;;;5064237;28;20264;-80
2022/10/30 00:07:41;;;;;;;0.10;0.10;;;14.80;99.90;;;;;;5062519;28;20719;-80
2022/10/30 00:10:07;;;;;;;0.10;0.10;;;14.80;99.90;;;;;;5078958;28;20181;-80
2022/10/30 00:12:33;;;;;;;0.07;0.07;;;14.80;99.90;;;;;;5073473;28;20201;-79
2022/10/30 00:14:58;;;;;;;0.10;0.10;;;14.80;99.90;;;;;;5062279;28;20210;-80
2022/10/30 00:17:24;;;;;;;0.00;0.00;;;14.80;99.90;;;;;;5061539;28;20192;-79
2022/10/30 00:19:49;;;;;;;0.10;0.10;;;14.80;99.90;;;;;;5062435;28;20241;-79
2022/10/30 00:22:15;;;;;;;0.10;0.10;;;14.60;99.90;;;;;;5060608;28;20231;-80
2022/10/30 00:24:40;;;;;;;0.10;0.10;;;14.70;99.90;;;;;;5059170;28;20188;-80
2022/10/30 00:27:06;;;;;;;0.10;0.10;;;14.60;99.90;;;;;;5063518;28;20232;-79
2022/10/30 00:29:32;;;;;;;0.10;0.10;;;14.50;99.90;;;;;;5063008;28;20192;-79
2022/10/30 00:31:57;;;;;;;0.10;0.10;;;14.60;99.90;;;;;;5061617;28;20187;-80
2022/10/30 00:34:23;;;;;;;0.10;0.10;;;14.60;99.90;;;;;;5061662;28;20522;-80
2022/10/30 00:36:48;;;;;;;0.10;0.10;;;14.60;99.90;;;;;;5063272;28;20564;-79
2022/10/30 00:39:14;;;;;;;0.10;0.10;;;14.60;99.90;;;;;;5063072;28;20242;-80
2022/10/30 00:41:40;;;;;;;0.10;0.10;;;14.60;99.90;;;;;;5052565;28;20189;-79
2022/10/30 00:44:31;;;;;;;0.10;0.10;;;14.50;99.90;;;;;;5061457;28;20266;-79
2022/10/30 00:47:03;;;;;;;0.10;0.10;;;14.50;99.90;;;;;;5062932;28;20213;-80
2022/10/30 00:49:32;;;;;;;0.10;0.10;;;14.50;99.90;;;;;;5061507;28;21041;-80
2022/10/30 00:51:59;;;;;;;0.10;0.10;;;14.50;99.90;;;;;;5061463;28;21106;-79
2022/10/30 00:54:25;;;;;;;0.10;0.10;;;14.50;99.90;;;;;;5060502;28;20196;-79
2022/10/30 00:56:51;;;;;;;0.10;0.10;;;14.60;99.90;;;;;;5062225;28;20282;-79
2022/10/30 00:59:24;;;;;;;0.10;0.10;;;14.60;99.90;;;;;;5060655;28;20275;-79
2022/10/30 01:01:52;;;;;;;0.07;0.07;;;14.50;99.90;;;;;;5060908;28;20287;-79
2022/10/30 01:04:18;;;;;;;0.10;0.10;;;14.50;99.90;;;;;;5062453;28;20641;-79
2022/10/30 01:06:47;;;;;;;0.10;0.10;;;14.50;99.90;;;;;;5059006;28;20211;-79
2022/10/30 01:09:13;;;;;;;0.10;0.10;;;14.40;99.90;;;;;;5075527;28;20228;-79
2022/10/30 01:11:39;;;;;;;0.10;0.10;;;14.40;99.90;;;;;;5061682;28;20214;-79
2022/10/30 01:14:07;;;;;;;0.10;0.10;;;14.40;99.90;;;;;;5059314;28;20692;-80
2022/10/30 01:17:09;;;;;;;0.10;0.10;;;14.30;99.90;;;;;;5060877;28;20265;-79
2022/10/30 01:20:01;;;;;;;0.00;0.00;;;14.40;99.90;;;;;;5069805;28;20202;-80
2022/10/30 01:22:51;;;;;;;0.10;0.10;;;14.50;99.90;;;;;;5060332;28;20633;-79
2022/10/30 01:26:02;;;;;;;0.10;0.10;;;14.50;99.90;;;;;;5061918;28;20190;-80
2022/10/30 01:28:34;;;;;;;0.10;0.10;;;14.40;99.90;;;;;;5060767;28;20199;-80
2022/10/30 01:31:12;;;;;;;0.10;0.10;;;14.30;99.90;;;;;;5060764;28;20218;-79
2022/10/30 01:34:02;;;;;;;0.10;0.10;;;14.30;99.90;;;;;;5060377;28;20713;-80
2022/10/30 01:36:36;;;;;;;0.10;0.10;;;14.30;99.90;;;;;;5071428;28;20184;-80
2022/10/30 01:39:16;;;;;;;0.10;0.10;;;14.30;99.90;;;;;;5061668;28;20180;-80
2022/10/30 01:41:42;;;;;;;0.10;0.10;;;14.30;99.90;;;;;;5070440;28;20270;-79
2022/10/30 01:44:16;;;;;;;0.10;0.10;;;14.30;99.90;;;;;;5059671;28;20299;-80
2022/10/30 01:47:00;;;;;;;0.10;0.10;;;14.30;99.90;;;;;;5060663;28;20203;-79
2022/10/30 01:49:46;;;;;;;0.10;0.10;;;14.40;99.90;;;;;;5063175;28;20706;-79
2022/10/30 01:52:15;;;;;;;0.10;0.10;;;14.40;99.90;;;;;;5047581;28;20196;-79
2022/10/30 01:54:56;;;;;;;0.10;0.10;;;14.50;99.90;;;;;;5059591;28;20185;-79
2022/10/30 01:57:52;;;;;;;0.10;0.10;;;14.50;99.90;;;;;;5061027;28;20489;-80
2022/10/30 02:00:19;;;;;;;0.10;0.10;;;14.40;99.90;;;;;;5070561;28;20187;-79
2022/10/30 02:02:45;;;;;;;0.10;0.10;;;14.40;99.90;;;;;;5063509;28;20199;-80
2022/10/30 02:05:19;;;;;;;0.10;0.10;;;14.50;99.90;;;;;;5062409;28;20191;-80
2022/10/30 02:07:44;;;;;;;0.10;0.10;;;14.40;99.90;;;;;;5062101;28;20634;-79
2022/10/30 02:10:11;;;;;;;0.10;0.10;;;14.40;99.90;;;;;;5061501;28;20271;-80
2022/10/30 02:12:37;;;;;;;0.10;0.10;;;14.30;99.90;;;;;;5075277;28;20204;-79
2022/10/30 02:15:03;;;;;;;0.10;0.10;;;14.30;99.90;;;;;;5059990;28;20187;-79
2022/10/30 02:17:29;;;;;;;0.10;0.10;;;14.30;99.90;;;;;;5060813;28;20203;-79
2022/10/30 02:19:55;;;;;;;0.10;0.10;;;14.40;99.90;;;;;;5058639;28;20184;-79
2022/10/30 02:22:20;;;;;;;0.10;0.10;;;14.40;99.90;;;;;;5059525;28;20207;-80
2022/10/30 02:24:46;;;;;;;0.10;0.10;;;14.40;99.90;;;;;;5068860;28;20189;-79
2022/10/30 02:27:11;;;;;;;0.10;0.10;;;14.40;99.90;;;;;;5060157;28;20295;-79
2022/10/30 02:29:37;;;;;;;0.10;0.10;;;14.40;99.90;;;;;;5057781;28;20195;-78
2022/10/30 02:32:03;;;;;;;0.10;0.10;;;14.30;99.90;;;;;;5058860;28;20242;-79
2022/10/30 02:34:28;;;;;;;0.10;0.10;;;14.30;99.90;;;;;;5058611;28;20195;-79
2022/10/30 02:36:54;;;;;;;0.10;0.10;;;14.30;99.90;;;;;;5060413;28;20191;-79
2022/10/30 02:39:20;;;;;;;0.10;0.10;;;14.40;99.90;;;;;;5061485;28;20211;-79
2022/10/30 02:41:46;;;;;;;0.10;0.10;;;14.50;99.90;;;;;;5059505;28;20185;-79
2022/10/30 02:44:12;;;;;;;0.10;0.10;;;14.50;99.90;;;;;;5062765;28;20287;-79
2022/10/30 02:46:38;;;;;;;0.10;0.10;;;14.50;99.90;;;;;;5064091;28;20665;-79
2022/10/30 02:49:03;;;;;;;0.10;0.10;;;14.50;99.90;;;;;;5064027;28;20184;-79
2022/10/30 02:51:32;;;;;;;0.10;0.10;;;14.40;99.90;;;;;;5062616;28;20196;-78
2022/10/30 02:53:59;;;;;;;0.10;0.10;;;14.30;99.90;;;;;;5072120;28;20209;-79
2022/10/30 02:56:24;;;;;;;0.10;0.10;;;14.10;99.90;;;;;;5062652;28;20188;-79
2022/10/30 02:58:50;;;;;;;0.10;0.10;;;14.00;99.90;;;;;;5063420;28;20203;-79
2022/10/30 03:01:17;;;;;;;0.10;0.10;;;13.90;99.90;;;;;;5064338;28;20193;-79
2022/10/30 03:03:43;;;;;;;0.10;0.10;;;13.80;99.90;;;;;;5062627;28;20238;-79
2022/10/30 03:06:12;;;;;;;0.10;0.10;;;13.90;99.90;;;;;;5063669;28;20216;-79
2022/10/30 03:08:37;;;;;;;0.10;0.10;;;13.90;99.90;;;;;;5063044;28;20206;-79
2022/10/30 03:11:10;;;;;;;0.10;0.10;;;14.00;99.90;;;;;;5063178;28;20184;-78
2022/10/30 03:13:36;;;;;;;0.10;0.10;;;14.10;99.90;;;;;;5061146;28;20311;-79
2022/10/30 03:16:05;;;;;;;0.10;0.10;;;14.10;99.90;;;;;;5061312;28;20248;-80
2022/10/30 03:18:31;;;;;;;0.10;0.10;;;14.10;99.90;;;;;;5062195;28;20552;-78
2022/10/30 03:21:01;;;;;;;0.10;0.10;;;14.20;99.90;;;;;;5063042;28;20186;-79
2022/10/30 03:23:27;;;;;;;0.10;0.10;;;14.20;99.90;;;;;;5062555;28;20208;-79
2022/10/30 03:25:54;;;;;;;0.10;0.10;;;14.20;99.90;;;;;;5064340;28;20182;-80
2022/10/30 03:28:25;;;;;;;0.10;0.10;;;14.30;99.90;;;;;;5064102;28;20237;-79
2022/10/30 03:30:57;;;;;;;0.10;0.10;;;14.30;99.90;;;;;;5064690;28;20192;-79
2022/10/30 03:33:22;;;;;;;0.10;0.10;;;14.20;99.90;;;;;;5072794;28;20219;-80
2022/10/30 03:35:48;;;;;;;0.10;0.10;;;14.20;99.90;;;;;;5065252;28;20188;-79
2022/10/30 03:38:14;;;;;;;0.10;0.10;;;14.20;99.90;;;;;;5062916;28;20192;-79
2022/10/30 03:40:40;;;;;;;0.10;0.10;;;14.20;99.90;;;;;;5065035;28;20187;-79
2022/10/30 03:43:06;;;;;;;0.10;0.10;;;14.20;99.90;;;;;;5064615;28;20204;-79
2022/10/30 03:45:33;;;;;;;0.10;0.10;;;14.20;99.90;;;;;;5065085;28;20230;-79
2022/10/30 03:48:04;;;;;;;0.10;0.10;;;14.20;99.90;;;;;;5065387;28;20219;-79
2022/10/30 03:50:30;;;;;;;0.10;0.10;;;14.20;99.90;;;;;;5064561;28;20192;-78
2022/10/30 03:52:56;;;;;;;0.10;0.10;;;14.20;99.90;;;;;;5063281;28;20557;-80
2022/10/30 03:55:23;;;;;;;0.10;0.10;;;14.10;99.90;;;;;;5061822;28;20288;-79
2022/10/30 03:57:49;;;;;;;0.10;0.10;;;14.10;99.90;;;;;;5065483;28;20182;-79
2022/10/30 04:00:15;;;;;;;0.10;0.10;;;14.10;99.90;;;;;;5064260;28;20552;-78
2022/10/30 04:02:46;;;;;;;0.10;0.10;;;14.10;99.90;;;;;;5062552;28;20372;-79
2022/10/30 04:05:12;;;;;;;0.10;0.10;;;14.10;99.90;;;;;;5064024;28;20189;-80
2022/10/30 04:07:38;;;;;;;0.10;0.10;;;14.00;99.90;;;;;;5061962;28;20208;-79
2022/10/30 04:10:04;;;;;;;0.10;0.10;;;14.00;99.90;;;;;;5052041;28;20777;-79
2022/10/30 04:12:29;;;;;;;0.10;0.10;;;13.90;99.90;;;;;;5077573;28;20215;-79
2022/10/30 04:14:55;;;;;;;0.10;0.10;;;14.00;99.90;;;;;;5059501;28;20193;-79
2022/10/30 04:17:21;;;;;;;0.10;0.10;;;13.90;99.90;;;;;;5062071;28;20215;-79
2022/10/30 04:19:46;;;;;;;0.10;0.10;;;14.00;99.90;;;;;;5061668;28;20323;-79
2022/10/30 04:22:12;;;;;;;0.10;0.10;;;14.00;99.90;;;;;;5061244;28;20672;-80
2022/10/30 04:24:38;;;;;;;0.10;0.10;;;14.00;99.90;;;;;;5060054;28;20200;-79
2022/10/30 04:27:04;;;;;;;0.10;0.10;;;14.00;99.90;;;;;;5058551;28;20830;-79
2022/10/30 04:29:29;;;;;;;0.10;0.10;;;14.00;99.90;;;;;;5058117;28;20198;-79
2022/10/30 04:31:55;;;;;;;0.10;0.10;;;14.00;99.90;;;;;;5066999;28;20637;-80
2022/10/30 04:34:20;;;;;;;0.10;0.10;;;13.90;99.90;;;;;;5062597;28;20186;-79
2022/10/30 04:36:46;;;;;;;0.10;0.10;;;13.90;99.90;;;;;;5063172;28;20191;-79
2022/10/30 04:39:11;;;;;;;0.10;0.10;;;13.80;99.90;;;;;;5065320;28;20186;-79
2022/10/30 04:41:37;;;;;;;4.40;3.97;;;13.80;99.90;;;;;;5074999;28;20198;-79
2022/10/30 04:44:03;;;;;;;0.10;0.10;;;13.80;99.90;;;;;;5065204;28;20214;-79
2022/10/30 04:46:28;;;;;;;0.10;0.10;;;13.80;99.90;;;;;;5073585;28;20210;-79
2022/10/30 04:48:54;;;;;;;0.10;0.10;;;13.70;99.90;;;;;;5066276;28;20211;-79
2022/10/30 04:51:20;;;;;;;0.10;0.10;;;13.70;99.90;;;;;;5064530;28;20194;-79
2022/10/30 04:53:45;;;;;;;0.10;0.10;;;13.60;99.90;;;;;;5065869;28;20268;-79
2022/10/30 04:56:11;;;;;;;0.10;0.10;;;13.50;99.90;;;;;;5064596;28;20199;-79
2022/10/30 04:58:36;;;;;;;0.10;0.10;;;13.40;99.90;;;;;;5064346;28;20198;-79
2022/10/30 05:01:04;;;;;;;0.10;0.10;;;13.40;99.90;;;;;;5064069;28;20186;-80
2022/10/30 05:03:29;;;;;;;0.10;0.10;;;13.40;99.90;;;;;;5059365;28;20214;-79
2022/10/30 05:06:32;;;;;;;0.10;0.10;;;13.30;99.90;;;;;;5062944;28;20197;-79
2022/10/30 05:08:57;;;;;;;0.10;0.10;;;13.30;99.90;;;;;;4995068;28;20193;-80
2022/10/30 05:11:23;;;;;;;0.10;0.10;;;13.30;99.90;;;;;;5052547;28;20202;-79
2022/10/30 05:13:48;;;;;;;0.07;0.07;;;13.30;99.90;;;;;;5076307;28;20360;-80
2022/10/30 05:16:14;;;;;;;0.10;0.10;;;13.20;99.90;;;;;;5063806;28;20187;-79
2022/10/30 05:18:39;;;;;;;0.10;0.10;;;13.20;99.90;;;;;;5074413;28;20304;-83
2022/10/30 05:21:05;;;;;;;0.10;0.10;;;13.10;99.90;;;;;;5064413;28;20258;-79
2022/10/30 05:23:31;;;;;;;0.00;0.00;;;13.10;99.90;;;;;;5059523;28;20219;-79
2022/10/30 05:25:59;;;;;;;0.10;0.10;;;13.00;99.90;;;;;;5064975;28;20190;-78
2022/10/30 05:28:24;;;;;;;0.10;0.10;;;13.00;99.90;;;;;;5062433;28;20195;-78
2022/10/30 05:30:52;;;;;;;0.10;0.10;;;12.90;99.90;;;;;;5062739;28;20200;-79
2022/10/30 05:33:17;;;;;;;0.10;0.10;;;12.90;99.90;;;;;;5060232;28;20209;-79
2022/10/30 05:35:43;;;;;;;0.10;0.10;;;12.90;99.90;;;;;;5059339;28;20603;-78
2022/10/30 05:38:09;;;;;;;0.10;0.10;;;12.90;99.90;;;;;;5057811;28;20227;-79
2022/10/30 05:40:35;;;;;;;0.10;0.10;;;12.90;99.90;;;;;;5071220;28;20688;-79
2022/10/30 05:43:00;;;;;;;0.10;0.10;;;12.90;99.90;;;;;;5060773;28;20205;-79
2022/10/30 05:45:26;;;;;;;0.10;0.10;;;12.90;99.90;;;;;;5061085;28;20263;-79
2022/10/30 05:48:12;;;;;;;0.10;0.10;;;12.90;99.90;;;;;;5058505;28;20318;-78
2022/10/30 05:50:38;;;;;;;0.10;0.10;;;12.90;99.90;;;;;;5059731;28;20201;-79
2022/10/30 05:53:04;;;;;;;0.10;0.10;;;12.90;99.90;;;;;;5058561;28;20217;-80
2022/10/30 05:55:30;;;;;;;0.10;0.10;;;12.90;99.90;;;;;;5061825;28;20213;-78
2022/10/30 05:58:00;;;;;;;0.10;0.10;;;12.90;99.90;;;;;;5061510;28;20243;-78
2022/10/30 06:00:27;;;;;;;0.00;0.00;;;12.80;99.90;;;;;;5072822;28;20188;-79
2022/10/30 06:03:05;;;;;;;0.10;0.10;;;12.80;99.90;;;;;;5061878;28;20193;-78
2022/10/30 06:05:33;;;;;;;0.00;0.00;;;12.70;99.90;;;;;;5062013;28;20270;-78
2022/10/30 06:07:59;;;;;;;0.10;0.10;;;12.70;99.90;;;;;;5062126;28;20259;-78
2022/10/30 06:10:25;;;;;;;0.00;0.00;;;12.70;99.90;;;;;;5059013;28;22098;-78
2022/10/30 06:13:02;;;;;;;0.10;0.10;;;12.70;99.90;;;;;;5057899;28;20273;-78
2022/10/30 06:15:29;;;;;;;0.10;0.10;;;12.70;99.90;;;;;;5072840;28;20281;-78
2022/10/30 06:17:55;;;;;;;0.00;0.00;;;12.60;99.90;;;;;;5057357;28;20316;-78
2022/10/30 06:20:23;;;;;;;0.00;0.00;;;12.60;99.90;;;;;;5059421;28;20644;-78
2022/10/30 06:23:03;;;;;;;0.00;0.00;;;12.60;99.90;;;;;;5057358;28;20698;-78
2022/10/30 06:25:31;;;;;;;0.10;0.10;;;12.60;99.90;;;;;;5058014;28;20638;-78
2022/10/30 06:27:57;;;;;;;0.10;0.10;;;12.60;99.90;;;;;;5059815;28;20209;-78
2022/10/30 06:30:24;;;;;;;0.10;0.10;;;12.60;99.90;;;;;;5061778;28;20173;-78
2022/10/30 06:32:49;;;;;;;0.10;0.10;;;12.50;99.90;;;;;;5075473;28;20315;-78
2022/10/30 06:35:15;;;;;;;0.10;0.10;;;12.60;99.90;;;;;;5059202;28;20285;-78
2022/10/30 06:37:48;;;;;;;0.10;0.10;;;12.50;99.90;;;;;;5058799;28;20185;-78
2022/10/30 06:40:14;;;;;;;0.07;0.07;;;12.40;99.90;;;;;;5062270;28;20265;-78
2022/10/30 06:42:47;;;;;;;0.10;0.10;;;12.30;99.90;;;;;;5058252;28;20711;-78
2022/10/30 06:45:14;;;;;;;0.10;0.10;;;12.30;99.90;;;;;;5058697;28;20656;-78
2022/10/30 06:47:40;;;;;;;0.10;0.10;;;12.40;99.90;;;;;;5058693;28;21126;-78
2022/10/30 06:50:09;;;;;;;0.10;0.10;;;12.50;99.90;;;;;;5059920;28;20714;-78
2022/10/30 06:52:35;;;;;;;0.00;0.00;;;12.60;99.90;;;;;;5057490;28;20288;-78
2022/10/30 06:55:01;;;;;;;0.10;0.10;;;12.70;99.90;;;;;;5058919;28;20193;-78
2022/10/30 06:57:26;;;;;;;0.10;0.10;;;12.70;99.90;;;;;;5059259;28;20256;-77
2022/10/30 06:59:52;;;;;;;0.10;0.10;;;12.80;99.90;;;;;;5058707;28;21277;-78
2022/10/30 07:02:18;;;;;;;0.10;0.10;;;12.80;99.90;;;;;;5057272;28;20205;-78
2022/10/30 07:04:44;;;;;;;0.10;0.10;;;12.80;99.90;;;;;;5057492;28;20230;-78
2022/10/30 07:07:13;;;;;;;0.10;0.10;;;12.90;99.90;;;;;;5057752;28;20213;-78
2022/10/30 07:09:39;;;;;;;0.10;0.10;;;12.90;99.90;;;;;;5058893;28;20193;-78
2022/10/30 07:12:05;;;;;;;0.10;0.10;;;13.00;99.90;;;;;;5058794;28;20192;-78
2022/10/30 07:14:31;;;;;;;0.10;0.10;;;13.20;99.90;;;;;;5063501;28;20186;-78
2022/10/30 07:16:57;;;;;;;0.10;0.10;;;13.20;99.90;;;;;;5058577;28;20197;-78
2022/10/30 07:19:22;;;;;;;0.03;0.03;;;13.30;99.90;;;;;;5059025;28;20275;-78
2022/10/30 07:21:48;;;;;;;0.10;0.10;;;13.40;99.90;;;;;;5059544;28;20196;-78
2022/10/30 07:24:14;;;;;;;0.10;0.10;;;13.60;99.90;;;;;;5057970;28;20719;-78
2022/10/30 07:26:39;;;;;;;0.10;0.10;;;13.70;99.90;;;;;;5059023;28;20221;-77
2022/10/30 07:29:05;;;;;;;0.10;0.10;;;13.80;99.90;;;;;;5059080;28;20186;-78
2022/10/30 07:31:31;;;;;;;0.10;0.10;;;13.90;99.90;;;;;;5061680;28;20273;-78
2022/10/30 07:33:57;;;;;;;0.10;0.10;;;13.90;99.90;;;;;;5060668;28;20300;-78
2022/10/30 07:36:23;;;;;;;0.10;0.10;;;14.00;99.90;;;;;;5062126;28;20190;-79
2022/10/30 07:38:49;;;;;;;0.10;0.10;;;14.10;99.90;;;;;;5061768;28;20181;-78
2022/10/30 07:41:17;;;;;;;0.10;0.10;;;14.30;99.90;;;;;;5061612;28;20221;-78
2022/10/30 07:43:42;;;;;;;0.10;0.10;;;14.40;99.90;;;;;;5060388;28;20637;-79
2022/10/30 07:46:08;;;;;;;0.10;0.10;;;14.60;99.90;;;;;;5061866;28;20218;-79
2022/10/30 07:48:33;;;;;;;0.10;0.10;;;14.70;99.90;;;;;;5061051;28;20719;-79
2022/10/30 07:50:59;;;;;;;0.10;0.10;;;14.70;99.90;;;;;;5062289;28;20190;-78
2022/10/30 07:53:24;;;;;;;0.10;0.10;;;14.80;99.90;;;;;;5059866;28;20226;-82
2022/10/30 07:55:50;;;;;;;0.03;0.03;;;14.80;99.90;;;;;;5061523;28;20180;-80
2022/10/30 07:58:16;;;;;;;0.10;0.10;;;14.90;99.90;;;;;;5061172;28;20215;-79
2022/10/30 08:00:41;;;;;;;0.00;0.00;;;14.90;99.90;;;;;;5062551;28;20665;-78
2022/10/30 08:03:08;;;;;;;0.10;0.10;;;15.00;99.90;;;;;;5059242;28;20211;-80
2022/10/30 08:05:33;;;;;;;0.10;0.10;;;14.90;99.90;;;;;;5061305;28;20195;-79
2022/10/30 08:07:59;;;;;;;0.10;0.10;;;15.00;99.90;;;;;;5060200;28;20584;-79
2022/10/30 08:10:25;;;;;;;0.10;0.10;;;15.00;99.90;;;;;;5060623;28;20220;-79
2022/10/30 08:12:50;;;;;;;0.00;0.00;;;15.10;99.90;;;;;;5050176;28;20383;-79
2022/10/30 08:15:16;;;;;;;0.10;0.10;;;15.20;99.90;;;;;;5063717;28;20846;-79
2022/10/30 08:17:47;;;;;;;0.10;0.10;;;15.20;99.90;;;;;;5061468;28;21045;-79
2022/10/30 08:20:14;;;;;;;0.10;0.10;;;15.30;99.90;;;;;;5059881;28;20195;-78
2022/10/30 08:22:54;;;;;;;0.10;0.10;;;15.40;99.90;;;;;;5060142;28;20208;-79
2022/10/30 08:25:21;;;;;;;0.10;0.10;;;15.50;99.90;;;;;;5057429;28;20203;-79
2022/10/30 08:28:02;;;;;;;0.10;0.10;;;15.20;99.90;;;;;;5059105;28;20203;-78
2022/10/30 08:30:33;;;;;;;0.10;0.10;;;15.30;99.90;;;;;;5059983;28;20279;-79
2022/10/30 08:33:01;;;;;;;0.10;0.10;;;15.10;99.90;;;;;;5076607;28;20199;-78
2022/10/30 08:35:27;;;;;;;0.10;0.10;;;15.20;99.90;;;;;;5061834;28;20195;-79
2022/10/30 08:38:01;;;;;;;0.10;0.10;;;15.00;99.90;;;;;;5061696;28;21824;-79
2022/10/30 08:40:27;;;;;;;0.00;0.00;;;15.00;99.90;;;;;;5060802;28;20290;-79
2022/10/30 08:42:54;;;;;;;0.10;0.10;;;15.40;99.90;;;;;;5060154;28;20749;-79
2022/10/30 08:45:21;;;;;;;0.10;0.10;;;15.50;99.90;;;;;;5061574;28;20292;-79
2022/10/30 08:47:47;;;;;;;0.10;0.10;;;15.90;99.90;;;;;;5061535;28;20267;-79
2022/10/30 08:50:13;;;;;;;0.10;0.10;;;16.00;99.90;;;;;;5060531;28;20189;-79
2022/10/30 08:52:39;;;;;;;0.10;0.10;;;16.10;99.90;;;;;;5062385;28;20286;-79
2022/10/30 08:55:05;;;;;;;0.10;0.10;;;16.30;99.90;;;;;;5061123;28;20279;-79
2022/10/30 08:57:35;;;;;;;0.10;0.10;;;15.80;99.90;;;;;;5060341;28;20227;-79
2022/10/30 09:00:02;;;;;;;0.10;0.10;;;15.30;99.90;;;;;;5060937;28;20267;-79
2022/10/30 09:02:28;;;;;;;0.10;0.10;;;15.70;99.90;;;;;;5061784;28;20303;-79
2022/10/30 09:04:53;;;;;;;0.10;0.10;;;15.80;99.90;;;;;;5054569;28;20383;-79
2022/10/30 09:07:19;;;;;;;0.10;0.10;;;15.80;99.90;;;;;;5054549;28;20216;-79
2022/10/30 09:09:44;;;;;;;0.10;0.10;;;15.80;99.90;;;;;;5057989;28;20184;-79
2022/10/30 09:12:10;;;;;;;0.10;0.10;;;15.60;99.90;;;;;;5062643;28;20181;-79
2022/10/30 09:14:36;;;;;;;0.10;0.10;;;15.50;99.90;;;;;;5059545;28;20181;-79
2022/10/30 09:17:01;;;;;;;0.10;0.10;;;15.70;99.90;;;;;;5058023;28;20737;-79
2022/10/30 09:19:27;;;;;;;0.10;0.10;;;15.70;99.90;;;;;;5060578;28;20235;-79
2022/10/30 09:21:54;;;;;;;0.10;0.10;;;16.10;99.90;;;;;;5060666;28;20181;-79
2022/10/30 09:24:19;;;;;;;0.03;0.03;;;16.50;99.90;;;;;;5060207;28;20243;-79
2022/10/30 09:26:45;;;;;;;0.10;0.10;;;16.80;99.90;;;;;;5056155;28;20315;-79
2022/10/30 09:29:10;;;;;;;0.10;0.10;;;17.10;99.90;;;;;;5054987;28;20184;-79
2022/10/30 09:31:36;;;;;;;0.10;0.10;;;17.30;99.90;;;;;;5058054;28;20185;-79
2022/10/30 09:34:01;;;;;;;0.10;0.10;;;17.40;99.90;;;;;;5060370;28;20607;-78
2022/10/30 09:36:27;;;;;;;0.10;0.10;;;17.40;99.90;;;;;;5069292;28;20862;-79
2022/10/30 09:38:54;;;;;;;0.10;0.10;;;17.40;99.90;;;;;;5061275;28;20658;-79
2022/10/30 09:41:38;;;;;;;0.10;0.10;;;17.70;99.90;;;;;;5059514;28;20193;-79
2022/10/30 09:44:38;;;;;;;0.10;0.10;;;17.50;99.90;;;;;;5059875;28;20205;-78
2022/10/30 09:47:36;;;;;;;0.10;0.10;;;17.80;99.90;;;;;;5069699;28;20239;-79
2022/10/30 09:50:10;;;;;;;0.10;0.10;;;17.90;99.90;;;;;;5062031;28;20205;-79
2022/10/30 09:52:55;;;;;;;0.10;0.10;;;18.20;99.90;;;;;;5070544;28;20207;-82
2022/10/30 09:55:49;;;;;;;0.10;0.10;;;18.30;99.90;;;;;;5063519;28;20189;-82
2022/10/30 09:58:30;;;;;;;0.10;0.10;;;18.20;99.90;;;;;;5063522;28;20177;-81
2022/10/30 10:01:15;;;;;;;0.10;0.10;;;18.30;99.90;;;;;;5072502;28;20233;-82
2022/10/30 10:03:47;;;;;;;0.10;0.10;;;18.00;99.90;;;;;;5061458;28;20241;-81
2022/10/30 10:06:18;;;;;;;0.10;0.10;;;18.10;99.90;;;;;;5072056;28;20313;-82
2022/10/30 10:08:52;;;;;;;0.10;0.10;;;17.80;99.90;;;;;;5062477;28;20188;-81
2022/10/30 10:11:24;;;;;;;0.10;0.10;;;18.10;99.90;;;;;;5072319;28;20172;-82
2022/10/30 10:13:56;;;;;;;0.10;0.10;;;18.30;99.90;;;;;;5057738;28;20214;-82
2022/10/30 10:16:34;;;;;;;0.10;0.10;;;18.40;99.90;;;;;;5051868;28;20185;-81
2022/10/30 10:19:17;;;;;;;0.10;0.10;;;18.60;99.90;;;;;;5057834;28;20174;-82
2022/10/30 10:21:48;;;;;;;0.10;0.10;;;18.80;99.90;;;;;;5056214;28;20191;-81
2022/10/30 10:24:20;;;;;;;0.10;0.10;;;18.90;99.90;;;;;;5057159;28;20689;-82
2022/10/30 10:26:49;;;;;;;0.10;0.10;;;19.00;99.90;;;;;;5060195;28;20212;-81
2022/10/30 10:29:33;;;;;;;0.10;0.10;;;18.90;99.90;;;;;;5058278;28;20284;-81
2022/10/30 10:32:35;;;;;;;0.10;0.10;;;18.40;99.90;;;;;;5059444;28;20275;-82
2022/10/30 10:35:23;;;;;;;0.10;0.10;;;18.60;99.90;;;;;;5059995;28;20177;-81
2022/10/30 10:38:20;;;;;;;0.10;0.10;;;18.80;99.90;;;;;;5060355;28;20242;-81
2022/10/30 10:40:45;;;;;;;0.10;0.10;;;19.10;99.90;;;;;;5072265;28;20597;-82
2022/10/30 10:43:36;;;;;;;0.10;0.10;;;19.10;99.90;;;;;;5062391;28;20216;-82
2022/10/30 10:46:16;;;;;;;0.10;0.10;;;19.20;99.90;;;;;;5061944;28;20199;-81
2022/10/30 10:48:54;;;;;;;0.10;0.10;;;19.50;99.90;;;;;;5077208;28;20664;-80
2022/10/30 10:51:33;;;;;;;0.10;0.10;;;19.60;99.90;;;;;;5060561;28;20310;-81
2022/10/30 10:54:16;;;;;;;0.10;0.10;;;19.50;99.90;;;;;;5059265;28;20232;-81
2022/10/30 10:56:45;;;;;;;0.10;0.10;;;19.40;99.90;;;;;;5057335;28;20184;-81
2022/10/30 10:59:25;;;;;;;0.10;0.10;;;19.80;99.90;;;;;;5058489;28;20186;-81
2022/10/30 11:02:30;;;;;;;0.20;0.20;;;19.30;99.90;;;;;;5060585;28;20177;-80
2022/10/30 11:05:20;;;;;;;0.10;0.10;;;19.40;99.90;;;;;;5058716;28;20202;-81
2022/10/30 11:07:47;;;;;;;0.10;0.10;;;19.10;99.90;;;;;;5064361;28;20223;-81
2022/10/30 11:10:15;;;;;;;0.10;0.10;;;19.40;99.90;;;;;;5063612;28;20181;-81
2022/10/30 11:12:41;;;;;;;0.10;0.10;;;19.60;99.90;;;;;;5063744;28;20213;-81
2022/10/30 11:15:30;;;;;;;0.10;0.10;;;19.70;99.90;;;;;;5062446;28;20654;-81
2022/10/30 11:18:07;;;;;;;0.10;0.10;;;19.90;99.90;;;;;;5059501;28;20622;-81
2022/10/30 11:20:41;;;;;;;0.10;0.10;;;19.80;99.90;;;;;;5071899;28;20316;-81
2022/10/30 11:23:39;;;;;;;0.10;0.10;;;20.00;99.90;;;;;;5063804;28;20212;-81
2022/10/30 11:26:27;;;;;;;0.10;0.10;;;20.20;99.90;;;;;;5061491;28;20277;-81
2022/10/30 11:29:12;;;;;;;0.10;0.10;;;20.20;99.90;;;;;;5045136;28;20197;-81
2022/10/30 11:31:42;;;;;;;0.10;0.10;;;20.10;99.90;;;;;;5060123;28;20189;-81
2022/10/30 11:34:17;;;;;;;0.10;0.10;;;20.30;99.90;;;;;;5061901;28;20280;-81
2022/10/30 11:36:48;;;;;;;0.10;0.10;;;20.30;99.90;;;;;;5064258;28;20173;-81
2022/10/30 11:39:19;;;;;;;0.10;0.10;;;20.30;99.90;;;;;;5061987;28;20189;-81
2022/10/30 11:41:53;;;;;;;0.10;0.10;;;20.40;99.90;;;;;;5061273;28;20593;-81
2022/10/30 11:44:19;;;;;;;0.10;0.10;;;20.50;99.90;;;;;;5061556;28;20206;-81
2022/10/30 11:46:45;;;;;;;0.10;0.10;;;20.70;99.90;;;;;;5070477;28;20216;-81
2022/10/30 11:49:31;;;;;;;0.10;0.10;;;20.90;99.90;;;;;;5060642;28;20189;-81
2022/10/30 11:51:57;;;;;;;0.10;0.10;;;20.80;99.90;;;;;;5061586;28;20328;-81
2022/10/30 11:54:24;;;;;;;0.10;0.10;;;21.10;99.90;;;;;;5056023;28;20193;-81
2022/10/30 11:56:53;;;;;;;0.10;0.10;;;21.20;99.90;;;;;;5058007;28;20188;-81
2022/10/30 11:59:21;;;;;;;0.10;0.10;;;21.40;99.90;;;;;;5062499;28;20189;-80
2022/10/30 12:02:18;;;;;;;0.10;0.10;;;21.40;99.90;;;;;;5063810;28;20190;-80
2022/10/30 12:04:44;;;;;;;0.10;0.10;;;21.60;99.90;;;;;;5077345;28;20257;-79
2022/10/30 12:07:24;;;;;;;0.10;0.10;;;21.40;99.90;;;;;;5064610;28;20212;-80
2022/10/30 12:09:50;;;;;;;0.10;0.10;;;21.50;99.90;;;;;;5060751;28;21269;-80
2022/10/30 12:12:32;;;;;;;0.10;0.10;;;21.50;99.90;;;;;;5063789;28;20264;-80
2022/10/30 12:15:09;;;;;;;0.10;0.10;;;21.70;99.90;;;;;;5063855;28;20190;-80
2022/10/30 12:17:37;;;;;;;0.10;0.10;;;21.70;99.90;;;;;;5065143;28;20533;-80
2022/10/30 12:20:04;;;;;;;0.10;0.10;;;22.00;99.90;;;;;;5064582;28;20246;-80
2022/10/30 12:22:32;;;;;;;0.10;0.10;;;22.10;99.90;;;;;;5061063;28;20209;-80
2022/10/30 12:25:01;;;;;;;0.10;0.10;;;22.20;99.90;;;;;;5060378;28;20292;-81
2022/10/30 12:27:30;;;;;;;0.10;0.10;;;22.20;99.90;;;;;;5062073;28;20212;-80
2022/10/30 12:30:22;;;;;;;0.10;0.10;;;22.30;99.90;;;;;;5057380;28;20553;-80
2022/10/30 12:33:01;;;;;;;0.10;0.10;;;22.40;99.90;;;;;;5054699;28;20276;-80
2022/10/30 12:35:26;;;;;;;0.10;0.10;;;22.40;99.90;;;;;;5074737;28;20191;-80
2022/10/30 12:37:53;;;;;;;0.10;0.10;;;22.20;99.90;;;;;;5061709;28;20555;-80
2022/10/30 12:40:35;;;;;;;0.10;0.10;;;22.20;99.90;;;;;;5057642;28;20200;-80
2022/10/30 12:43:07;;;;;;;0.10;0.10;;;22.40;99.90;;;;;;5059518;28;20204;-80
2022/10/30 12:45:44;;;;;;;0.10;0.10;;;22.40;99.90;;;;;;5060394;28;20197;-81
2022/10/30 12:48:32;;;;;;;0.10;0.10;;;22.40;99.90;;;;;;5062648;28;21359;-80
2022/10/30 12:51:26;;;;;;;0.10;0.10;;;22.40;99.90;;;;;;5070467;28;20280;-80
2022/10/30 12:54:18;;;;;;;0.10;0.10;;;22.40;99.90;;;;;;5062806;28;20229;-80
2022/10/30 12:56:46;;;;;;;0.10;0.10;;;22.40;99.90;;;;;;5062166;28;20189;-81
2022/10/30 12:59:50;;;;;;;0.10;0.10;;;22.40;99.90;;;;;;5064999;28;20196;-80
2022/10/30 13:02:52;;;;;;;0.10;0.10;;;22.40;99.90;;;;;;5062296;28;20199;-81
2022/10/30 13:05:40;;;;;;;0.10;0.10;;;22.40;99.90;;;;;;5071076;28;20180;-81